sensor_id;sensor_type;location;lat;lon;timestamp;P1;durP1;ratioP1;P2;durP2;ratioP2
29280;SDS011;25048;49.590;11.026;2023-11-21T00:00:58;11.97;;;1.30;;
29280;SDS011;25048;49.590;11.026;2023-11-21T00:03:27;3.20;;;1.10;;
29280;SDS011;25048;49.590;11.026;2023-11-21T00:05:54;2.33;;;1.00;;
29280;SDS011;25048;49.590;11.026;2023-11-21T00:08:22;2.60;;;1.97;;
29280;SDS011;25048;49.590;11.026;2023-11-21T00:10:49;7.90;;;1.20;;
29280;SDS011;25048;49.590;11.026;2023-11-21T00:13:17;4.40;;;1.30;;
29280;SDS011;25048;49.590;11.026;2023-11-21T00:15:44;3.53;;;1.00;;
29280;SDS011;25048;49.590;11.026;2023-11-21T00:18:12;4.03;;;1.50;;
29280;SDS011;25048;49.590;11.026;2023-11-21T00:20:39;3.10;;;1.10;;
29280;SDS011;25048;49.590;11.026;2023-11-21T00:23:07;2.27;;;1.10;;
29280;SDS011;25048;49.590;11.026;2023-11-21T00:25:35;5.53;;;1.13;;
29280;SDS011;25048;49.590;11.026;2023-11-21T00:28:02;4.43;;;1.27;;
29280;SDS011;25048;49.590;11.026;2023-11-21T00:30:31;2.30;;;1.10;;
29280;SDS011;25048;49.590;11.026;2023-11-21T00:32:59;5.30;;;1.63;;
29280;SDS011;25048;49.590;11.026;2023-11-21T00:35:26;5.20;;;1.57;;
29280;SDS011;25048;49.590;11.026;2023-11-21T00:37:54;3.77;;;1.00;;
29280;SDS011;25048;49.590;11.026;2023-11-21T00:40:21;4.03;;;1.17;;
29280;SDS011;25048;49.590;11.026;2023-11-21T00:42:49;2.27;;;1.30;;
29280;SDS011;25048;49.590;11.026;2023-11-21T00:45:16;2.13;;;0.97;;
29280;SDS011;25048;49.590;11.026;2023-11-21T00:47:44;6.03;;;1.10;;
29280;SDS011;25048;49.590;11.026;2023-11-21T00:50:11;5.63;;;1.10;;
29280;SDS011;25048;49.590;11.026;2023-11-21T00:52:39;1.83;;;1.00;;
29280;SDS011;25048;49.590;11.026;2023-11-21T00:55:07;4.60;;;1.43;;
29280;SDS011;25048;49.590;11.026;2023-11-21T00:57:35;2.47;;;0.90;;
29280;SDS011;25048;49.590;11.026;2023-11-21T01:00:15;4.63;;;1.30;;
29280;SDS011;25048;49.590;11.026;2023-11-21T01:02:43;3.30;;;0.97;;
29280;SDS011;25048;49.590;11.026;2023-11-21T01:05:11;2.03;;;1.07;;
29280;SDS011;25048;49.590;11.026;2023-11-21T01:07:38;4.23;;;0.90;;
29280;SDS011;25048;49.590;11.026;2023-11-21T01:10:06;1.53;;;1.00;;
29280;SDS011;25048;49.590;11.026;2023-11-21T01:12:36;2.83;;;0.80;;
29280;SDS011;25048;49.590;11.026;2023-11-21T01:15:04;3.67;;;0.93;;
29280;SDS011;25048;49.590;11.026;2023-11-21T01:17:37;2.60;;;1.43;;
29280;SDS011;25048;49.590;11.026;2023-11-21T01:20:06;6.70;;;1.73;;
29280;SDS011;25048;49.590;11.026;2023-11-21T01:22:36;3.27;;;1.23;;
29280;SDS011;25048;49.590;11.026;2023-11-21T01:25:04;3.10;;;1.27;;
29280;SDS011;25048;49.590;11.026;2023-11-21T01:27:33;4.03;;;1.30;;
29280;SDS011;25048;49.590;11.026;2023-11-21T01:30:01;5.33;;;1.40;;
29280;SDS011;25048;49.590;11.026;2023-11-21T01:32:30;4.33;;;1.30;;
29280;SDS011;25048;49.590;11.026;2023-11-21T01:34:58;7.70;;;1.07;;
29280;SDS011;25048;49.590;11.026;2023-11-21T01:37:26;2.50;;;1.00;;
29280;SDS011;25048;49.590;11.026;2023-11-21T01:39:56;3.33;;;1.10;;
29280;SDS011;25048;49.590;11.026;2023-11-21T01:42:24;6.67;;;2.17;;
29280;SDS011;25048;49.590;11.026;2023-11-21T01:44:53;2.77;;;1.03;;
29280;SDS011;25048;49.590;11.026;2023-11-21T01:47:21;5.53;;;1.60;;
29280;SDS011;25048;49.590;11.026;2023-11-21T01:49:49;2.37;;;1.10;;
29280;SDS011;25048;49.590;11.026;2023-11-21T01:52:16;1.77;;;1.00;;
29280;SDS011;25048;49.590;11.026;2023-11-21T01:54:45;4.70;;;1.40;;
29280;SDS011;25048;49.590;11.026;2023-11-21T01:57:13;9.93;;;2.10;;
29280;SDS011;25048;49.590;11.026;2023-11-21T01:59:41;4.83;;;1.60;;
29280;SDS011;25048;49.590;11.026;2023-11-21T02:02:10;4.47;;;1.40;;
29280;SDS011;25048;49.590;11.026;2023-11-21T02:04:38;6.03;;;1.90;;
29280;SDS011;25048;49.590;11.026;2023-11-21T02:07:06;3.97;;;1.83;;
29280;SDS011;25048;49.590;11.026;2023-11-21T02:09:34;3.80;;;1.70;;
29280;SDS011;25048;49.590;11.026;2023-11-21T02:12:03;5.30;;;1.67;;
29280;SDS011;25048;49.590;11.026;2023-11-21T02:14:31;10.57;;;1.97;;
29280;SDS011;25048;49.590;11.026;2023-11-21T02:16:59;5.83;;;1.70;;
29280;SDS011;25048;49.590;11.026;2023-11-21T02:19:26;2.17;;;1.43;;
29280;SDS011;25048;49.590;11.026;2023-11-21T02:21:59;3.07;;;1.80;;
29280;SDS011;25048;49.590;11.026;2023-11-21T02:24:28;3.57;;;1.77;;
29280;SDS011;25048;49.590;11.026;2023-11-21T02:26:56;6.97;;;2.20;;
29280;SDS011;25048;49.590;11.026;2023-11-21T02:29:24;2.90;;;1.50;;
29280;SDS011;25048;49.590;11.026;2023-11-21T02:31:54;2.70;;;1.90;;
29280;SDS011;25048;49.590;11.026;2023-11-21T02:34:22;7.47;;;1.83;;
29280;SDS011;25048;49.590;11.026;2023-11-21T02:36:51;5.17;;;2.33;;
29280;SDS011;25048;49.590;11.026;2023-11-21T02:39:19;8.93;;;2.00;;
29280;SDS011;25048;49.590;11.026;2023-11-21T02:41:48;8.30;;;2.00;;
29280;SDS011;25048;49.590;11.026;2023-11-21T02:44:16;2.87;;;1.80;;
29280;SDS011;25048;49.590;11.026;2023-11-21T02:46:44;4.00;;;1.93;;
29280;SDS011;25048;49.590;11.026;2023-11-21T02:49:12;2.67;;;1.80;;
29280;SDS011;25048;49.590;11.026;2023-11-21T02:51:40;4.73;;;2.00;;
29280;SDS011;25048;49.590;11.026;2023-11-21T02:54:07;4.67;;;1.90;;
29280;SDS011;25048;49.590;11.026;2023-11-21T02:56:35;6.10;;;2.10;;
29280;SDS011;25048;49.590;11.026;2023-11-21T02:59:03;3.90;;;1.93;;
29280;SDS011;25048;49.590;11.026;2023-11-21T03:01:30;7.03;;;2.30;;
29280;SDS011;25048;49.590;11.026;2023-11-21T03:03:58;3.90;;;2.37;;
29280;SDS011;25048;49.590;11.026;2023-11-21T03:06:25;4.77;;;1.80;;
29280;SDS011;25048;49.590;11.026;2023-11-21T03:08:53;2.57;;;1.70;;
29280;SDS011;25048;49.590;11.026;2023-11-21T03:11:20;4.93;;;2.13;;
29280;SDS011;25048;49.590;11.026;2023-11-21T03:13:48;2.47;;;1.60;;
29280;SDS011;25048;49.590;11.026;2023-11-21T03:16:15;5.30;;;1.77;;
29280;SDS011;25048;49.590;11.026;2023-11-21T03:18:45;4.63;;;1.73;;
29280;SDS011;25048;49.590;11.026;2023-11-21T03:21:12;3.70;;;1.73;;
29280;SDS011;25048;49.590;11.026;2023-11-21T03:23:40;5.60;;;1.90;;
29280;SDS011;25048;49.590;11.026;2023-11-21T03:26:11;7.20;;;2.20;;
29280;SDS011;25048;49.590;11.026;2023-11-21T03:28:38;4.10;;;1.90;;
29280;SDS011;25048;49.590;11.026;2023-11-21T03:31:06;3.87;;;2.43;;
29280;SDS011;25048;49.590;11.026;2023-11-21T03:33:35;3.47;;;2.10;;
29280;SDS011;25048;49.590;11.026;2023-11-21T03:36:02;9.90;;;2.40;;
29280;SDS011;25048;49.590;11.026;2023-11-21T03:38:30;6.30;;;2.13;;
29280;SDS011;25048;49.590;11.026;2023-11-21T03:40:58;9.30;;;2.80;;
29280;SDS011;25048;49.590;11.026;2023-11-21T03:43:25;4.53;;;1.80;;
29280;SDS011;25048;49.590;11.026;2023-11-21T03:45:53;3.33;;;1.87;;
29280;SDS011;25048;49.590;11.026;2023-11-21T03:48:20;2.60;;;1.77;;
29280;SDS011;25048;49.590;11.026;2023-11-21T03:50:49;4.93;;;2.33;;
29280;SDS011;25048;49.590;11.026;2023-11-21T03:53:16;3.30;;;1.90;;
29280;SDS011;25048;49.590;11.026;2023-11-21T03:55:44;7.10;;;2.43;;
29280;SDS011;25048;49.590;11.026;2023-11-21T03:58:11;2.73;;;1.83;;
29280;SDS011;25048;49.590;11.026;2023-11-21T04:00:39;3.83;;;2.00;;
29280;SDS011;25048;49.590;11.026;2023-11-21T04:03:06;3.33;;;2.17;;
29280;SDS011;25048;49.590;11.026;2023-11-21T04:05:34;3.83;;;2.10;;
29280;SDS011;25048;49.590;11.026;2023-11-21T04:08:01;3.40;;;1.93;;
29280;SDS011;25048;49.590;11.026;2023-11-21T04:10:29;3.33;;;2.13;;
29280;SDS011;25048;49.590;11.026;2023-11-21T04:12:56;2.97;;;1.90;;
29280;SDS011;25048;49.590;11.026;2023-11-21T04:15:24;4.17;;;2.13;;
29280;SDS011;25048;49.590;11.026;2023-11-21T04:17:51;3.57;;;1.80;;
29280;SDS011;25048;49.590;11.026;2023-11-21T04:20:19;2.90;;;2.07;;
29280;SDS011;25048;49.590;11.026;2023-11-21T04:22:48;5.57;;;2.00;;
29280;SDS011;25048;49.590;11.026;2023-11-21T04:25:16;4.83;;;2.73;;
29280;SDS011;25048;49.590;11.026;2023-11-21T04:27:44;6.67;;;2.93;;
29280;SDS011;25048;49.590;11.026;2023-11-21T04:30:12;4.67;;;1.80;;
29280;SDS011;25048;49.590;11.026;2023-11-21T04:32:40;2.97;;;2.10;;
29280;SDS011;25048;49.590;11.026;2023-11-21T04:35:08;3.57;;;1.90;;
29280;SDS011;25048;49.590;11.026;2023-11-21T04:37:35;5.17;;;2.17;;
29280;SDS011;25048;49.590;11.026;2023-11-21T04:40:03;4.13;;;1.93;;
29280;SDS011;25048;49.590;11.026;2023-11-21T04:42:34;3.93;;;2.10;;
29280;SDS011;25048;49.590;11.026;2023-11-21T04:45:03;4.27;;;2.53;;
29280;SDS011;25048;49.590;11.026;2023-11-21T04:47:33;6.37;;;1.90;;
29280;SDS011;25048;49.590;11.026;2023-11-21T04:50:01;6.13;;;2.27;;
29280;SDS011;25048;49.590;11.026;2023-11-21T04:52:29;4.73;;;2.30;;
29280;SDS011;25048;49.590;11.026;2023-11-21T04:54:58;4.33;;;1.90;;
29280;SDS011;25048;49.590;11.026;2023-11-21T04:57:27;4.17;;;2.37;;
29280;SDS011;25048;49.590;11.026;2023-11-21T04:59:55;2.73;;;1.90;;
29280;SDS011;25048;49.590;11.026;2023-11-21T05:02:22;2.67;;;1.90;;
29280;SDS011;25048;49.590;11.026;2023-11-21T05:04:50;6.87;;;2.60;;
29280;SDS011;25048;49.590;11.026;2023-11-21T05:07:18;5.40;;;2.50;;
29280;SDS011;25048;49.590;11.026;2023-11-21T05:09:46;2.53;;;2.10;;
29280;SDS011;25048;49.590;11.026;2023-11-21T05:12:14;4.27;;;2.17;;
29280;SDS011;25048;49.590;11.026;2023-11-21T05:14:41;5.30;;;2.37;;
29280;SDS011;25048;49.590;11.026;2023-11-21T05:17:09;3.30;;;2.40;;
29280;SDS011;25048;49.590;11.026;2023-11-21T05:19:36;2.90;;;2.00;;
29280;SDS011;25048;49.590;11.026;2023-11-21T05:22:04;3.30;;;2.27;;
29280;SDS011;25048;49.590;11.026;2023-11-21T05:24:34;6.10;;;2.40;;
29280;SDS011;25048;49.590;11.026;2023-11-21T05:27:01;6.93;;;2.80;;
29280;SDS011;25048;49.590;11.026;2023-11-21T05:29:29;2.60;;;2.10;;
29280;SDS011;25048;49.590;11.026;2023-11-21T05:31:56;3.83;;;2.40;;
29280;SDS011;25048;49.590;11.026;2023-11-21T05:34:24;5.47;;;2.40;;
29280;SDS011;25048;49.590;11.026;2023-11-21T05:36:52;4.73;;;2.40;;
29280;SDS011;25048;49.590;11.026;2023-11-21T05:39:19;3.97;;;2.20;;
29280;SDS011;25048;49.590;11.026;2023-11-21T05:41:47;7.13;;;2.97;;
29280;SDS011;25048;49.590;11.026;2023-11-21T05:44:15;8.37;;;5.30;;
29280;SDS011;25048;49.590;11.026;2023-11-21T05:46:42;7.60;;;4.00;;
29280;SDS011;25048;49.590;11.026;2023-11-21T05:49:10;5.67;;;3.27;;
29280;SDS011;25048;49.590;11.026;2023-11-21T05:51:37;4.53;;;3.00;;
29280;SDS011;25048;49.590;11.026;2023-11-21T05:54:05;3.50;;;2.50;;
29280;SDS011;25048;49.590;11.026;2023-11-21T05:56:34;5.87;;;2.93;;
29280;SDS011;25048;49.590;11.026;2023-11-21T05:59:01;4.90;;;2.87;;
29280;SDS011;25048;49.590;11.026;2023-11-21T06:01:29;6.93;;;2.40;;
29280;SDS011;25048;49.590;11.026;2023-11-21T06:03:56;5.73;;;2.83;;
29280;SDS011;25048;49.590;11.026;2023-11-21T06:06:24;4.63;;;2.90;;
29280;SDS011;25048;49.590;11.026;2023-11-21T06:08:52;4.90;;;3.17;;
29280;SDS011;25048;49.590;11.026;2023-11-21T06:11:19;10.60;;;3.50;;
29280;SDS011;25048;49.590;11.026;2023-11-21T06:13:47;5.40;;;3.00;;
29280;SDS011;25048;49.590;11.026;2023-11-21T06:16:15;4.93;;;2.93;;
29280;SDS011;25048;49.590;11.026;2023-11-21T06:18:47;5.10;;;3.50;;
29280;SDS011;25048;49.590;11.026;2023-11-21T06:21:15;5.83;;;3.40;;
29280;SDS011;25048;49.590;11.026;2023-11-21T06:23:45;5.23;;;4.07;;
29280;SDS011;25048;49.590;11.026;2023-11-21T06:26:13;7.33;;;3.97;;
29280;SDS011;25048;49.590;11.026;2023-11-21T06:28:40;7.67;;;3.40;;
29280;SDS011;25048;49.590;11.026;2023-11-21T06:31:08;4.77;;;2.77;;
29280;SDS011;25048;49.590;11.026;2023-11-21T06:33:36;6.93;;;3.27;;
29280;SDS011;25048;49.590;11.026;2023-11-21T06:36:04;8.57;;;4.63;;
29280;SDS011;25048;49.590;11.026;2023-11-21T06:38:32;11.30;;;3.77;;
29280;SDS011;25048;49.590;11.026;2023-11-21T06:41:00;9.10;;;4.07;;
29280;SDS011;25048;49.590;11.026;2023-11-21T06:43:28;7.37;;;3.57;;
29280;SDS011;25048;49.590;11.026;2023-11-21T06:45:57;6.17;;;3.50;;
29280;SDS011;25048;49.590;11.026;2023-11-21T06:48:25;10.73;;;4.43;;
29280;SDS011;25048;49.590;11.026;2023-11-21T06:50:52;6.43;;;3.63;;
29280;SDS011;25048;49.590;11.026;2023-11-21T06:53:20;8.60;;;5.00;;
29280;SDS011;25048;49.590;11.026;2023-11-21T06:55:47;6.10;;;4.20;;
29280;SDS011;25048;49.590;11.026;2023-11-21T06:58:15;6.70;;;4.47;;
29280;SDS011;25048;49.590;11.026;2023-11-21T07:00:42;8.93;;;5.27;;
29280;SDS011;25048;49.590;11.026;2023-11-21T07:03:11;11.73;;;5.13;;
29280;SDS011;25048;49.590;11.026;2023-11-21T07:05:39;12.33;;;5.10;;
29280;SDS011;25048;49.590;11.026;2023-11-21T07:08:06;11.10;;;5.60;;
29280;SDS011;25048;49.590;11.026;2023-11-21T07:10:36;12.87;;;6.90;;
29280;SDS011;25048;49.590;11.026;2023-11-21T07:13:03;10.87;;;6.67;;
29280;SDS011;25048;49.590;11.026;2023-11-21T07:15:32;12.80;;;6.27;;
29280;SDS011;25048;49.590;11.026;2023-11-21T07:18:00;10.93;;;5.70;;
29280;SDS011;25048;49.590;11.026;2023-11-21T07:20:28;12.23;;;6.30;;
29280;SDS011;25048;49.590;11.026;2023-11-21T07:22:56;10.53;;;5.37;;
29280;SDS011;25048;49.590;11.026;2023-11-21T07:25:23;13.27;;;5.70;;
29280;SDS011;25048;49.590;11.026;2023-11-21T07:27:51;11.63;;;5.30;;
29280;SDS011;25048;49.590;11.026;2023-11-21T07:30:20;10.60;;;5.27;;
29280;SDS011;25048;49.590;11.026;2023-11-21T07:32:48;10.53;;;5.63;;
29280;SDS011;25048;49.590;11.026;2023-11-21T07:35:16;8.90;;;4.80;;
29280;SDS011;25048;49.590;11.026;2023-11-21T07:37:43;10.43;;;6.00;;
29280;SDS011;25048;49.590;11.026;2023-11-21T07:40:12;11.53;;;4.97;;
29280;SDS011;25048;49.590;11.026;2023-11-21T07:42:40;7.30;;;4.77;;
29280;SDS011;25048;49.590;11.026;2023-11-21T07:45:08;10.47;;;5.13;;
29280;SDS011;25048;49.590;11.026;2023-11-21T07:47:37;7.57;;;4.97;;
29280;SDS011;25048;49.590;11.026;2023-11-21T07:50:05;7.77;;;4.77;;
29280;SDS011;25048;49.590;11.026;2023-11-21T07:52:33;11.30;;;5.00;;
29280;SDS011;25048;49.590;11.026;2023-11-21T07:55:00;7.07;;;5.13;;
29280;SDS011;25048;49.590;11.026;2023-11-21T07:57:28;12.03;;;6.27;;
29280;SDS011;25048;49.590;11.026;2023-11-21T07:59:56;8.80;;;5.23;;
29280;SDS011;25048;49.590;11.026;2023-11-21T08:02:23;9.87;;;5.83;;
29280;SDS011;25048;49.590;11.026;2023-11-21T08:04:51;9.77;;;5.77;;
29280;SDS011;25048;49.590;11.026;2023-11-21T08:07:19;8.67;;;5.20;;
29280;SDS011;25048;49.590;11.026;2023-11-21T08:09:47;10.07;;;6.27;;
29280;SDS011;25048;49.590;11.026;2023-11-21T08:12:15;11.53;;;6.07;;
29280;SDS011;25048;49.590;11.026;2023-11-21T08:14:44;11.57;;;5.77;;
29280;SDS011;25048;49.590;11.026;2023-11-21T08:17:12;10.10;;;6.33;;
29280;SDS011;25048;49.590;11.026;2023-11-21T08:19:40;8.17;;;5.93;;
29280;SDS011;25048;49.590;11.026;2023-11-21T08:22:07;9.13;;;5.23;;
29280;SDS011;25048;49.590;11.026;2023-11-21T08:24:35;8.53;;;4.70;;
29280;SDS011;25048;49.590;11.026;2023-11-21T08:27:03;11.73;;;5.40;;
29280;SDS011;25048;49.590;11.026;2023-11-21T08:29:32;12.10;;;5.43;;
29280;SDS011;25048;49.590;11.026;2023-11-21T08:32:02;7.83;;;5.43;;
29280;SDS011;25048;49.590;11.026;2023-11-21T08:34:31;10.97;;;5.73;;
29280;SDS011;25048;49.590;11.026;2023-11-21T08:36:59;9.73;;;5.50;;
29280;SDS011;25048;49.590;11.026;2023-11-21T08:39:26;8.97;;;5.50;;
29280;SDS011;25048;49.590;11.026;2023-11-21T08:41:57;14.30;;;5.80;;
29280;SDS011;25048;49.590;11.026;2023-11-21T08:44:24;10.20;;;5.40;;
29280;SDS011;25048;49.590;11.026;2023-11-21T08:46:52;11.73;;;6.40;;
29280;SDS011;25048;49.590;11.026;2023-11-21T08:49:19;11.30;;;6.07;;
29280;SDS011;25048;49.590;11.026;2023-11-21T08:51:47;8.83;;;5.77;;
29280;SDS011;25048;49.590;11.026;2023-11-21T08:54:14;9.17;;;6.43;;
29280;SDS011;25048;49.590;11.026;2023-11-21T08:56:43;8.27;;;6.43;;
29280;SDS011;25048;49.590;11.026;2023-11-21T08:59:12;12.00;;;6.67;;
29280;SDS011;25048;49.590;11.026;2023-11-21T09:01:42;7.63;;;5.00;;
29280;SDS011;25048;49.590;11.026;2023-11-21T09:04:10;8.93;;;6.00;;
29280;SDS011;25048;49.590;11.026;2023-11-21T09:06:39;10.78;;;6.22;;
29280;SDS011;25048;49.590;11.026;2023-11-21T09:09:06;8.40;;;6.10;;
29280;SDS011;25048;49.590;11.026;2023-11-21T09:11:36;8.65;;;5.33;;
29280;SDS011;25048;49.590;11.026;2023-11-21T09:14:04;10.50;;;6.40;;
29280;SDS011;25048;49.590;11.026;2023-11-21T09:16:31;11.30;;;6.87;;
29280;SDS011;25048;49.590;11.026;2023-11-21T09:18:59;9.58;;;6.42;;
29280;SDS011;25048;49.590;11.026;2023-11-21T09:21:26;11.73;;;7.30;;
29280;SDS011;25048;49.590;11.026;2023-11-21T09:23:54;11.80;;;7.17;;
29280;SDS011;25048;49.590;11.026;2023-11-21T09:26:21;11.20;;;7.03;;
29280;SDS011;25048;49.590;11.026;2023-11-21T09:28:49;10.07;;;6.00;;
29280;SDS011;25048;49.590;11.026;2023-11-21T09:31:16;9.83;;;6.80;;
29280;SDS011;25048;49.590;11.026;2023-11-21T09:33:46;10.17;;;6.13;;
29280;SDS011;25048;49.590;11.026;2023-11-21T09:36:13;8.50;;;5.93;;
29280;SDS011;25048;49.590;11.026;2023-11-21T09:38:41;9.83;;;6.30;;
29280;SDS011;25048;49.590;11.026;2023-11-21T09:41:11;12.70;;;6.28;;
29280;SDS011;25048;49.590;11.026;2023-11-21T09:43:41;8.90;;;5.70;;
29280;SDS011;25048;49.590;11.026;2023-11-21T09:46:10;8.43;;;5.60;;
29280;SDS011;25048;49.590;11.026;2023-11-21T09:48:41;6.55;;;4.78;;
29280;SDS011;25048;49.590;11.026;2023-11-21T09:51:09;6.40;;;4.60;;
29280;SDS011;25048;49.590;11.026;2023-11-21T09:53:38;8.33;;;5.27;;
29280;SDS011;25048;49.590;11.026;2023-11-21T09:56:09;9.50;;;5.45;;
29280;SDS011;25048;49.590;11.026;2023-11-21T09:58:37;8.60;;;5.70;;
29280;SDS011;25048;49.590;11.026;2023-11-21T10:01:05;9.73;;;5.50;;
29280;SDS011;25048;49.590;11.026;2023-11-21T10:03:35;6.73;;;5.40;;
29280;SDS011;25048;49.590;11.026;2023-11-21T10:06:04;6.97;;;5.15;;
29280;SDS011;25048;49.590;11.026;2023-11-21T10:08:33;7.40;;;4.62;;
29280;SDS011;25048;49.590;11.026;2023-11-21T10:11:02;6.60;;;4.57;;
29280;SDS011;25048;49.590;11.026;2023-11-21T10:13:32;6.97;;;4.60;;
29280;SDS011;25048;49.590;11.026;2023-11-21T10:16:00;7.87;;;4.90;;
29280;SDS011;25048;49.590;11.026;2023-11-21T10:18:31;7.23;;;4.37;;
29280;SDS011;25048;49.590;11.026;2023-11-21T10:21:00;7.40;;;4.40;;
29280;SDS011;25048;49.590;11.026;2023-11-21T10:23:29;8.73;;;4.53;;
29280;SDS011;25048;49.590;11.026;2023-11-21T10:25:57;5.73;;;4.20;;
29280;SDS011;25048;49.590;11.026;2023-11-21T10:28:25;6.80;;;5.25;;
29280;SDS011;25048;49.590;11.026;2023-11-21T10:30:53;10.40;;;5.77;;
29280;SDS011;25048;49.590;11.026;2023-11-21T10:33:26;10.30;;;6.12;;
29280;SDS011;25048;49.590;11.026;2023-11-21T10:35:55;7.22;;;5.25;;
29280;SDS011;25048;49.590;11.026;2023-11-21T10:38:23;9.50;;;4.95;;
29280;SDS011;25048;49.590;11.026;2023-11-21T10:40:52;6.25;;;4.90;;
29280;SDS011;25048;49.590;11.026;2023-11-21T10:43:24;5.47;;;4.65;;
29280;SDS011;25048;49.590;11.026;2023-11-21T10:45:52;7.08;;;4.30;;
29280;SDS011;25048;49.590;11.026;2023-11-21T10:48:23;7.03;;;4.37;;
29280;SDS011;25048;49.590;11.026;2023-11-21T10:50:51;4.58;;;4.05;;
29280;SDS011;25048;49.590;11.026;2023-11-21T10:53:20;7.42;;;4.35;;
29280;SDS011;25048;49.590;11.026;2023-11-21T10:55:48;6.08;;;4.00;;
29280;SDS011;25048;49.590;11.026;2023-11-21T10:58:15;5.17;;;3.95;;
29280;SDS011;25048;49.590;11.026;2023-11-21T11:00:44;9.45;;;5.05;;
29280;SDS011;25048;49.590;11.026;2023-11-21T11:03:12;5.00;;;4.00;;
29280;SDS011;25048;49.590;11.026;2023-11-21T11:05:41;6.37;;;4.50;;
29280;SDS011;25048;49.590;11.026;2023-11-21T11:08:12;5.12;;;4.33;;
29280;SDS011;25048;49.590;11.026;2023-11-21T11:10:50;7.45;;;4.28;;
29280;SDS011;25048;49.590;11.026;2023-11-21T11:13:18;5.42;;;4.00;;
29280;SDS011;25048;49.590;11.026;2023-11-21T11:15:51;5.33;;;3.67;;
29280;SDS011;25048;49.590;11.026;2023-11-21T11:18:21;6.27;;;4.63;;
29280;SDS011;25048;49.590;11.026;2023-11-21T11:20:49;7.40;;;5.53;;
29280;SDS011;25048;49.590;11.026;2023-11-21T11:28:48;6.50;;;4.85;;
29280;SDS011;25048;49.590;11.026;2023-11-21T11:34:17;9.15;;;4.58;;
29280;SDS011;25048;49.590;11.026;2023-11-21T11:36:49;6.62;;;4.28;;
29280;SDS011;25048;49.590;11.026;2023-11-21T11:39:38;9.15;;;4.70;;
29280;SDS011;25048;49.590;11.026;2023-11-21T11:42:14;7.08;;;3.72;;
29280;SDS011;25048;49.590;11.026;2023-11-21T11:44:47;7.15;;;4.62;;
29280;SDS011;25048;49.590;11.026;2023-11-21T11:47:27;10.35;;;4.90;;
29280;SDS011;25048;49.590;11.026;2023-11-21T11:50:09;7.93;;;4.80;;
29280;SDS011;25048;49.590;11.026;2023-11-21T11:52:43;8.43;;;4.10;;
29280;SDS011;25048;49.590;11.026;2023-11-21T11:55:15;9.28;;;4.30;;
29280;SDS011;25048;49.590;11.026;2023-11-21T12:02:59;7.55;;;3.77;;
29280;SDS011;25048;49.590;11.026;2023-11-21T12:05:31;8.83;;;4.05;;
29280;SDS011;25048;49.590;11.026;2023-11-21T12:08:05;10.43;;;4.15;;
29280;SDS011;25048;49.590;11.026;2023-11-21T12:10:36;6.40;;;4.05;;
29280;SDS011;25048;49.590;11.026;2023-11-21T12:13:06;7.60;;;4.45;;
29280;SDS011;25048;49.590;11.026;2023-11-21T12:15:38;8.75;;;4.47;;
29280;SDS011;25048;49.590;11.026;2023-11-21T12:18:08;7.45;;;3.83;;
29280;SDS011;25048;49.590;11.026;2023-11-21T12:20:39;7.47;;;3.22;;
29280;SDS011;25048;49.590;11.026;2023-11-21T12:23:10;7.45;;;4.10;;
29280;SDS011;25048;49.590;11.026;2023-11-21T12:25:39;10.93;;;4.03;;
29280;SDS011;25048;49.590;11.026;2023-11-21T12:28:07;7.90;;;3.37;;
29280;SDS011;25048;49.590;11.026;2023-11-21T12:30:42;5.77;;;3.53;;
29280;SDS011;25048;49.590;11.026;2023-11-21T12:33:15;6.45;;;3.37;;
29280;SDS011;25048;49.590;11.026;2023-11-21T12:35:51;7.42;;;3.20;;
29280;SDS011;25048;49.590;11.026;2023-11-21T12:38:19;5.83;;;3.00;;
29280;SDS011;25048;49.590;11.026;2023-11-21T12:40:48;6.30;;;3.10;;
29280;SDS011;25048;49.590;11.026;2023-11-21T12:43:16;6.90;;;2.95;;
29280;SDS011;25048;49.590;11.026;2023-11-21T12:45:50;6.90;;;3.40;;
29280;SDS011;25048;49.590;11.026;2023-11-21T12:51:45;4.80;;;3.02;;
29280;SDS011;25048;49.590;11.026;2023-11-21T12:54:34;8.35;;;2.85;;
29280;SDS011;25048;49.590;11.026;2023-11-21T12:57:05;7.35;;;2.58;;
29280;SDS011;25048;49.590;11.026;2023-11-21T12:59:40;5.35;;;2.70;;
29280;SDS011;25048;49.590;11.026;2023-11-21T13:02:09;4.62;;;2.52;;
29280;SDS011;25048;49.590;11.026;2023-11-21T13:04:39;3.80;;;2.33;;
29280;SDS011;25048;49.590;11.026;2023-11-21T13:07:07;3.60;;;2.35;;
29280;SDS011;25048;49.590;11.026;2023-11-21T13:09:39;5.87;;;2.02;;
29280;SDS011;25048;49.590;11.026;2023-11-21T13:12:24;4.65;;;2.10;;
29280;SDS011;25048;49.590;11.026;2023-11-21T13:14:54;3.95;;;1.85;;
29280;SDS011;25048;49.590;11.026;2023-11-21T13:17:26;4.75;;;1.57;;
29280;SDS011;25048;49.590;11.026;2023-11-21T13:19:54;3.92;;;1.98;;
29280;SDS011;25048;49.590;11.026;2023-11-21T13:22:23;4.90;;;1.77;;
29280;SDS011;25048;49.590;11.026;2023-11-21T13:24:54;4.08;;;1.95;;
29280;SDS011;25048;49.590;11.026;2023-11-21T13:27:22;3.33;;;1.72;;
29280;SDS011;25048;49.590;11.026;2023-11-21T13:29:51;5.90;;;1.82;;
29280;SDS011;25048;49.590;11.026;2023-11-21T13:32:20;3.17;;;1.40;;
29280;SDS011;25048;49.590;11.026;2023-11-21T13:34:49;3.20;;;1.47;;
29280;SDS011;25048;49.590;11.026;2023-11-21T13:37:18;3.17;;;1.82;;
29280;SDS011;25048;49.590;11.026;2023-11-21T13:39:46;3.05;;;1.80;;
29280;SDS011;25048;49.590;11.026;2023-11-21T13:42:15;2.45;;;1.42;;
29280;SDS011;25048;49.590;11.026;2023-11-21T13:44:42;4.12;;;1.37;;
29280;SDS011;25048;49.590;11.026;2023-11-21T13:47:12;4.10;;;1.92;;
29280;SDS011;25048;49.590;11.026;2023-11-21T13:49:39;3.52;;;1.30;;
29280;SDS011;25048;49.590;11.026;2023-11-21T13:52:07;1.82;;;1.20;;
29280;SDS011;25048;49.590;11.026;2023-11-21T13:54:37;3.02;;;1.57;;
29280;SDS011;25048;49.590;11.026;2023-11-21T13:57:04;4.92;;;1.45;;
29280;SDS011;25048;49.590;11.026;2023-11-21T13:59:32;3.85;;;1.92;;
29280;SDS011;25048;49.590;11.026;2023-11-21T14:01:59;3.25;;;1.30;;
29280;SDS011;25048;49.590;11.026;2023-11-21T14:04:28;5.22;;;1.80;;
29280;SDS011;25048;49.590;11.026;2023-11-21T14:06:58;6.28;;;1.32;;
29280;SDS011;25048;49.590;11.026;2023-11-21T14:09:27;6.53;;;1.55;;
29280;SDS011;25048;49.590;11.026;2023-11-21T14:12:02;4.97;;;1.27;;
29280;SDS011;25048;49.590;11.026;2023-11-21T14:14:31;3.03;;;1.60;;
29280;SDS011;25048;49.590;11.026;2023-11-21T14:16:59;5.72;;;1.35;;
29280;SDS011;25048;49.590;11.026;2023-11-21T14:19:29;2.20;;;1.50;;
29280;SDS011;25048;49.590;11.026;2023-11-21T14:21:58;2.95;;;1.50;;
29280;SDS011;25048;49.590;11.026;2023-11-21T14:24:26;2.98;;;1.37;;
29280;SDS011;25048;49.590;11.026;2023-11-21T14:26:54;2.62;;;1.20;;
29280;SDS011;25048;49.590;11.026;2023-11-21T14:29:22;3.12;;;1.50;;
29280;SDS011;25048;49.590;11.026;2023-11-21T14:31:50;3.15;;;1.52;;
29280;SDS011;25048;49.590;11.026;2023-11-21T14:34:19;5.30;;;1.72;;
29280;SDS011;25048;49.590;11.026;2023-11-21T14:36:47;2.85;;;1.72;;
29280;SDS011;25048;49.590;11.026;2023-11-21T14:39:15;5.42;;;1.55;;
29280;SDS011;25048;49.590;11.026;2023-11-21T14:41:44;5.12;;;1.95;;
29280;SDS011;25048;49.590;11.026;2023-11-21T14:44:11;3.50;;;1.77;;
29280;SDS011;25048;49.590;11.026;2023-11-21T14:46:41;4.35;;;1.57;;
29280;SDS011;25048;49.590;11.026;2023-11-21T15:29:21;6.17;;;2.45;;
29280;SDS011;25048;49.590;11.026;2023-11-21T15:31:50;10.13;;;2.40;;
29280;SDS011;25048;49.590;11.026;2023-11-21T15:34:19;8.80;;;2.20;;
29280;SDS011;25048;49.590;11.026;2023-11-21T15:36:46;3.60;;;2.00;;
29280;SDS011;25048;49.590;11.026;2023-11-21T15:39:16;4.58;;;2.35;;